Time;durP1;ratioP1;P1;durP2;ratioP2;P2;SDS_P1;SDS_P2;PMS_P1;PMS_P2;Temp;Humidity;BMP_temperature;BMP_pressure;BME280_temperature;BME280_humidity;BME280_pressure;Samples;Min_cycle;Max_cycle;Signal;HPM_P1;HPM_P2
2022/08/31 00:03:58;;;;;;;18.42;14.60;;;;;;;16.46;100.00;93191.06;5090195;28;20051;-70
2022/08/31 00:06:25;;;;;;;18.40;13.45;;;;;;;16.40;100.00;93198.00;5090234;28;20062;-70
2022/08/31 00:08:52;;;;;;;18.38;14.50;;;;;;;16.40;100.00;93199.84;5089545;28;20044;-70
2022/08/31 00:11:26;;;;;;;16.55;13.57;;;;;;;16.39;100.00;93193.09;5089379;28;20097;-70
2022/08/31 00:13:55;;;;;;;17.83;14.27;;;;;;;16.37;100.00;93201.09;5089862;28;20044;-70
2022/08/31 00:16:23;;;;;;;18.13;14.00;;;;;;;16.35;100.00;93194.59;5086935;28;20040;-71
2022/08/31 00:18:51;;;;;;;18.38;13.60;;;;;;;16.34;100.00;93193.81;5088775;28;20134;-71
2022/08/31 00:21:21;;;;;;;18.98;14.20;;;;;;;16.32;100.00;93197.66;5089388;28;20089;-70
2022/08/31 00:23:49;;;;;;;15.23;12.85;;;;;;;16.19;100.00;93188.50;5089448;28;20040;-70
2022/08/31 00:26:17;;;;;;;20.73;13.85;;;;;;;16.19;100.00;93194.44;5089267;28;20439;-70
2022/08/31 00:28:44;;;;;;;17.17;14.80;;;;;;;16.15;100.00;93193.38;5089294;28;20073;-71
2022/08/31 00:31:11;;;;;;;20.25;15.13;;;;;;;16.13;100.00;93193.63;5089266;28;20048;-71
2022/08/31 00:33:38;;;;;;;17.85;14.07;;;;;;;15.96;100.00;93161.84;5088764;28;20048;-71
2022/08/31 00:36:08;;;;;;;17.30;15.13;;;;;;;16.15;100.00;93186.38;5089139;28;20492;-71
2022/08/31 00:38:37;;;;;;;15.52;13.93;;;;;;;16.13;100.00;93193.63;5089311;28;20093;-71
2022/08/31 00:41:04;;;;;;;22.08;15.43;;;;;;;16.11;100.00;93194.91;5089002;28;20044;-71
2022/08/31 00:43:36;;;;;;;16.45;13.73;;;;;;;16.06;100.00;93200.81;5089111;28;20081;-71
2022/08/31 00:46:03;;;;;;;17.42;14.65;;;;;;;16.07;100.00;93193.81;5088827;28;20565;-71
2022/08/31 00:48:30;;;;;;;17.33;13.98;;;;;;;16.02;100.00;93197.91;5088913;28;20045;-71
2022/08/31 00:50:58;;;;;;;17.40;14.32;;;;;;;15.98;100.00;93201.25;5089103;28;20090;-71
2022/08/31 00:53:25;;;;;;;15.05;13.35;;;;;;;15.93;100.00;93191.63;5088809;28;20048;-71
2022/08/31 00:55:53;;;;;;;17.65;14.27;;;;;;;15.89;100.00;93203.47;5088744;28;20047;-71
2022/08/31 00:58:20;;;;;;;17.85;14.55;;;;;;;15.88;100.00;93191.53;5088702;28;20048;-71
2022/08/31 01:00:47;;;;;;;16.88;14.20;;;;;;;15.86;100.00;93190.97;5088801;28;20426;-71
2022/08/31 01:03:15;;;;;;;18.00;14.43;;;;;;;15.90;100.00;93194.66;5089021;28;20052;-71
2022/08/31 01:05:43;;;;;;;18.85;14.10;;;;;;;15.88;100.00;93188.94;5088771;28;20122;-71
2022/08/31 01:08:10;;;;;;;18.02;14.00;;;;;;;15.86;100.00;93190.97;5088666;28;20044;-71
2022/08/31 01:10:40;;;;;;;16.52;14.05;;;;;;;15.83;100.00;93187.06;5088946;28;20169;-71
2022/08/31 01:13:11;;;;;;;16.38;13.55;;;;;;;15.76;100.00;93189.88;5088678;28;20052;-70
2022/08/31 01:15:42;;;;;;;17.75;13.25;;;;;;;15.83;100.00;93194.84;5088831;28;20063;-71
2022/08/31 01:18:09;;;;;;;17.05;13.88;;;;;;;15.83;100.00;93199.25;5088297;28;20556;-71
2022/08/31 01:20:47;;;;;;;17.38;14.02;;;;;;;15.80;100.00;93200.50;5088922;28;20043;-71
2022/08/31 01:23:38;;;;;;;18.05;13.02;;;;;;;15.80;100.00;93205.69;5088431;28;20573;-71
2022/08/31 01:26:07;;;;;;;17.90;13.98;;;;;;;15.79;100.00;93198.16;5088573;28;20075;-71
2022/08/31 01:28:34;;;;;;;16.42;14.10;;;;;;;15.79;100.00;93204.13;5088423;28;20515;-71
2022/08/31 01:31:04;;;;;;;18.73;13.70;;;;;;;15.80;100.00;93207.50;5088815;28;20109;-71
2022/08/31 01:33:31;;;;;;;19.00;13.63;;;;;;;15.75;100.00;93206.41;5088503;28;20050;-71
2022/08/31 01:35:59;;;;;;;17.75;14.95;;;;;;;15.73;100.00;93203.28;5088685;28;20036;-71
2022/08/31 01:38:28;;;;;;;19.20;14.70;;;;;;;15.68;100.00;93194.66;5088277;28;20044;-71
2022/08/31 01:40:58;;;;;;;17.15;14.52;;;;;;;15.70;100.00;93200.41;5088592;28;20400;-71
2022/08/31 01:43:25;;;;;;;19.30;14.52;;;;;;;15.68;100.00;93199.84;5088578;28;20044;-71
2022/08/31 01:45:52;;;;;;;17.70;14.60;;;;;;;15.67;100.00;93196.47;5088374;28;20044;-71
2022/08/31 01:48:20;;;;;;;17.58;14.02;;;;;;;15.59;100.00;93199.47;5088382;28;20052;-71
2022/08/31 01:50:47;;;;;;;21.13;15.05;;;;;;;15.60;100.00;93196.66;5088321;28;20140;-71
2022/08/31 01:53:15;;;;;;;19.10;14.75;;;;;;;15.48;100.00;93190.81;5085887;28;20040;-71
2022/08/31 01:55:43;;;;;;;18.40;14.43;;;;;;;15.54;100.00;93200.22;5088352;28;20052;-71
2022/08/31 01:58:10;;;;;;;18.42;14.45;;;;;;;15.42;100.00;93189.97;5088746;28;20121;-71
2022/08/31 02:00:37;;;;;;;23.17;15.60;;;;;;;15.44;100.00;93192.31;5092289;28;20438;-71
2022/08/31 02:03:06;;;;;;;17.20;14.32;;;;;;;15.47;100.00;93197.03;5092312;28;20454;-71
2022/08/31 02:05:34;;;;;;;19.80;15.05;;;;;;;15.45;100.00;93199.06;5092099;28;20055;-71
2022/08/31 02:08:01;;;;;;;17.02;14.13;;;;;;;15.46;100.00;93198.81;5091880;28;20051;-71
2022/08/31 02:10:28;;;;;;;18.15;14.48;;;;;;;15.44;100.00;93200.88;5091927;28;20409;-71
2022/08/31 02:12:57;;;;;;;16.73;14.30;;;;;;;15.44;100.00;93206.06;5091844;28;20511;-71
2022/08/31 02:15:23;;;;;;;16.13;12.93;;;;;;;15.44;100.00;93200.88;5091752;28;20040;-70
2022/08/31 02:17:51;;;;;;;15.40;13.40;;;;;;;15.47;100.00;93209.97;5091438;28;20492;-71
2022/08/31 02:20:18;;;;;;;18.77;15.05;;;;;;;15.27;100.00;93182.78;5091946;28;20047;-71
2022/08/31 02:22:47;;;;;;;19.23;15.15;;;;;;;15.27;100.00;93184.59;5091908;28;20090;-71
2022/08/31 02:25:15;;;;;;;16.27;14.48;;;;;;;15.47;100.00;93215.16;5091425;28;20515;-71
2022/08/31 02:27:42;;;;;;;17.88;14.48;;;;;;;15.44;100.00;93202.66;5091484;28;20499;-71
2022/08/31 02:30:13;;;;;;;17.95;14.05;;;;;;;15.42;100.00;93202.91;5091219;28;20101;-71
2022/08/31 02:32:40;;;;;;;16.83;13.95;;;;;;;15.42;100.00;93197.72;5091690;28;20048;-70
2022/08/31 02:35:08;;;;;;;17.05;14.98;;;;;;;15.40;100.00;93201.56;5091586;28;20102;-70
2022/08/31 02:37:35;;;;;;;18.00;14.70;;;;;;;15.36;100.00;93204.66;5092122;28;20044;-71
2022/08/31 02:40:03;;;;;;;19.33;16.55;;;;;;;15.32;100.00;93203.56;5092132;28;20105;-71
2022/08/31 02:42:29;;;;;;;18.05;14.68;;;;;;;15.30;100.00;93195.25;5091506;28;20522;-72
2022/08/31 02:44:56;;;;;;;20.17;16.15;;;;;;;15.25;100.00;93184.03;5091820;28;20135;-72
2022/08/31 02:47:26;;;;;;;19.38;15.15;;;;;;;15.28;100.00;93202.47;5091900;28;20127;-72
2022/08/31 02:49:53;;;;;;;19.67;16.20;;;;;;;15.23;100.00;93199.84;5091957;28;20543;-71
2022/08/31 02:52:19;;;;;;;19.95;15.20;;;;;;;15.16;100.00;93204.38;5091667;28;20052;-72
2022/08/31 02:54:46;;;;;;;21.02;16.30;;;;;;;15.17;100.00;93203.34;5091679;28;20051;-71
2022/08/31 02:57:13;;;;;;;20.52;17.38;;;;;;;15.13;100.00;93200.47;5091881;28;20044;-72
2022/08/31 02:59:40;;;;;;;20.75;17.70;;;;;;;15.14;100.00;93209.00;5091595;28;20093;-72
2022/08/31 03:02:06;;;;;;;20.42;17.50;;;;;;;15.09;100.00;93205.31;5091525;28;20134;-72
2022/08/31 03:04:34;;;;;;;20.48;16.95;;;;;;;15.09;100.00;93202.75;5091545;28;20054;-71
2022/08/31 03:07:02;;;;;;;19.50;16.00;;;;;;;15.06;100.00;93199.84;5091539;28;20453;-72
2022/08/31 03:09:30;;;;;;;21.55;16.08;;;;;;;15.06;100.00;93200.66;5090654;28;20052;-71
2022/08/31 03:11:57;;;;;;;20.50;17.42;;;;;;;15.08;100.00;93200.38;5091140;28;20042;-71
2022/08/31 03:14:24;;;;;;;23.92;16.65;;;;;;;15.09;100.00;93201.97;5091425;28;20089;-71
2022/08/31 03:16:50;;;;;;;23.33;17.38;;;;;;;14.97;100.00;93191.72;5091115;28;20044;-71
2022/08/31 03:19:17;;;;;;;21.83;16.73;;;;;;;15.03;100.00;93197.72;5091422;28;20055;-71
2022/08/31 03:21:45;;;;;;;19.45;15.98;;;;;;;15.02;100.00;93203.94;5091160;28;20052;-71
2022/08/31 03:24:13;;;;;;;20.58;15.85;;;;;;;15.00;100.00;93203.38;5090994;28;20048;-71
2022/08/31 03:26:40;;;;;;;21.13;16.73;;;;;;;14.94;100.00;93200.72;5091023;28;20083;-71
2022/08/31 03:29:07;;;;;;;19.75;15.32;;;;;;;14.91;100.00;93198.59;5091140;28;20094;-71
2022/08/31 03:31:33;;;;;;;19.17;16.20;;;;;;;14.91;100.00;93196.00;5090899;28;20050;-71
2022/08/31 03:34:00;;;;;;;23.83;16.10;;;;;;;14.90;100.00;93198.84;5090615;28;20480;-71
2022/08/31 03:36:27;;;;;;;20.23;16.73;;;;;;;14.89;100.00;93197.28;5090529;28;20098;-71
2022/08/31 03:38:55;;;;;;;19.50;16.63;;;;;;;14.69;100.00;93172.66;5090888;28;20048;-71
2022/08/31 03:41:24;;;;;;;19.58;16.20;;;;;;;14.84;100.00;93203.16;5090870;28;20048;-71
2022/08/31 03:43:51;;;;;;;19.70;16.17;;;;;;;14.85;100.00;93202.13;5091179;28;20056;-71
2022/08/31 03:46:18;;;;;;;21.92;17.95;;;;;;;14.79;100.00;93196.13;5090479;28;20139;-71
2022/08/31 03:48:46;;;;;;;21.23;17.13;;;;;;;14.74;100.00;93196.00;5090768;28;20052;-71
2022/08/31 03:51:14;;;;;;;19.33;16.70;;;;;;;14.81;100.00;93201.03;5090597;28;20143;-71
2022/08/31 03:53:42;;;;;;;18.85;16.58;;;;;;;14.85;100.00;93217.66;5090398;28;20519;-71
2022/08/31 03:56:10;;;;;;;22.15;16.60;;;;;;;14.86;100.00;93213.28;5090138;28;20051;-71
2022/08/31 03:58:38;;;;;;;21.33;15.93;;;;;;;14.83;100.00;93212.72;5090651;28;20449;-71
2022/08/31 04:01:05;;;;;;;21.60;16.92;;;;;;;14.91;100.00;93218.53;5090514;28;20152;-71
2022/08/31 04:03:32;;;;;;;18.02;15.38;;;;;;;14.74;100.00;93190.03;5090550;28;20052;-71
2022/08/31 04:05:59;;;;;;;17.23;15.13;;;;;;;14.93;100.00;93214.69;5090055;28;20140;-71
2022/08/31 04:08:26;;;;;;;19.30;16.73;;;;;;;15.00;100.00;93211.16;5090364;28;20047;-71
2022/08/31 04:10:53;;;;;;;23.05;16.75;;;;;;;15.00;100.00;93214.50;5090374;28;20051;-71
2022/08/31 04:13:22;;;;;;;22.17;18.42;;;;;;;14.99;100.00;93212.94;5089984;28;20051;-71
2022/08/31 04:15:49;;;;;;;22.52;16.05;;;;;;;15.02;100.00;93207.31;5090092;28;20131;-71
2022/08/31 04:18:16;;;;;;;22.85;16.63;;;;;;;15.03;100.00;93208.88;5089825;28;20483;-71
2022/08/31 04:20:43;;;;;;;21.42;17.00;;;;;;;15.09;100.00;93201.97;5089753;28;20499;-71
2022/08/31 04:23:10;;;;;;;22.92;15.60;;;;;;;15.13;100.00;93204.88;5089525;28;20508;-71
2022/08/31 04:25:40;;;;;;;22.88;18.25;;;;;;;15.14;100.00;93196.06;5089721;28;20090;-71
2022/08/31 04:28:08;;;;;;;20.17;16.58;;;;;;;15.15;100.00;93195.84;5089466;28;20093;-71
2022/08/31 04:30:39;;;;;;;19.05;16.05;;;;;;;15.15;100.00;93189.88;5089993;28;20071;-71
2022/08/31 04:33:07;;;;;;;19.77;16.45;;;;;;;15.11;100.00;93194.75;5089746;28;20044;-71
2022/08/31 04:35:34;;;;;;;19.08;15.20;;;;;;;15.13;100.00;93203.03;5089866;28;20519;-71
2022/08/31 04:38:00;;;;;;;20.60;15.98;;;;;;;15.08;100.00;93193.41;5089933;28;20511;-71
2022/08/31 04:40:27;;;;;;;20.73;14.88;;;;;;;15.15;100.00;93195.84;5089963;28;20051;-71
2022/08/31 04:42:54;;;;;;;23.38;16.58;;;;;;;15.16;100.00;93197.41;5075919;28;20036;-71
2022/08/31 04:45:22;;;;;;;21.77;17.20;;;;;;;15.20;100.00;93190.75;5089919;28;20040;-70
2022/08/31 04:47:50;;;;;;;21.50;15.20;;;;;;;15.27;100.00;93187.19;5089318;28;20066;-70
2022/08/31 04:50:17;;;;;;;23.40;16.35;;;;;;;15.31;100.00;93188.25;5089421;28;20040;-71
2022/08/31 04:52:49;;;;;;;21.70;15.95;;;;;;;15.31;100.00;93189.06;5089234;28;20091;-71
2022/08/31 04:55:17;;;;;;;22.15;17.00;;;;;;;15.27;100.00;93182.78;5089429;28;20044;-70
2022/08/31 04:57:43;;;;;;;27.80;19.42;;;;;;;15.36;100.00;93185.75;5089173;28;20415;-70
2022/08/31 05:00:11;;;;;;;22.20;17.20;;;;;;;15.35;100.00;93182.38;5089173;28;20117;-71
2022/08/31 05:02:37;;;;;;;23.13;17.95;;;;;;;15.36;100.00;93176.19;5089115;28;20043;-71
2022/08/31 05:05:07;;;;;;;25.92;17.33;;;;;;;15.43;100.00;93178.59;5089794;28;20525;-71
2022/08/31 05:07:33;;;;;;;22.60;17.92;;;;;;;15.43;100.00;93180.41;5089399;28;20055;-70
2022/08/31 05:10:00;;;;;;;22.83;17.17;;;;;;;15.51;100.00;93177.41;5089317;28;20044;-71
2022/08/31 05:12:27;;;;;;;23.63;16.70;;;;;;;15.59;100.00;93181.34;5089289;28;20475;-71
2022/08/31 05:14:54;;;;;;;22.65;16.55;;;;;;;15.71;100.00;93184.63;5089153;28;20040;-71
2022/08/31 05:17:20;;;;;;;25.80;17.02;;;;;;;15.84;100.00;93182.69;5089065;28;20044;-71
2022/08/31 05:19:47;;;;;;;21.55;17.27;;;;;;;15.96;100.00;93188.53;5088792;28;20098;-71
2022/08/31 05:22:16;;;;;;;23.75;17.48;;;;;;;16.04;100.00;93184.72;5089020;28;20489;-71
2022/08/31 05:24:42;;;;;;;21.13;17.05;;;;;;;16.11;100.00;93179.34;5088847;28;20047;-71
2022/08/31 05:27:09;;;;;;;23.58;16.90;;;;;;;16.17;100.00;93184.31;5088592;28;20523;-71
2022/08/31 05:29:36;;;;;;;24.75;18.17;;;;;;;16.26;100.00;93184.66;5088958;28;20496;-71
2022/08/31 05:32:03;;;;;;;23.15;18.02;;;;;;;16.36;100.00;93180.59;5088766;28;20561;-71
2022/08/31 05:34:30;;;;;;;27.90;17.52;;;;;;;16.41;100.00;93178.84;5091599;28;20055;-71
2022/08/31 05:36:57;;;;;;;25.52;18.10;;;;;;;16.22;100.00;93142.16;5093100;28;20496;-71
2022/08/31 05:39:25;;;;;;;25.17;18.05;;;;;;;16.43;100.00;93166.41;5092912;28;20056;-71
2022/08/31 05:41:53;;;;;;;27.00;18.60;;;;;;;16.58;100.00;93179.75;5092945;28;20126;-71
2022/08/31 05:44:21;;;;;;;22.33;16.83;;;;;;;16.47;100.00;93151.16;5093127;28;20092;-71
2022/08/31 05:46:49;;;;;;;24.23;17.25;;;;;;;16.67;100.00;93173.84;5092554;28;20503;-71
2022/08/31 05:49:16;;;;;;;19.23;16.42;;;;;;;16.73;100.00;93160.94;5093015;28;20048;-71
2022/08/31 05:51:43;;;;;;;22.80;17.13;;;;;;;16.67;100.00;93140.13;5092775;28;20093;-71
2022/08/31 05:54:10;;;;;;;21.17;17.23;;;;;;;16.92;100.00;93172.47;5092401;28;20052;-71
2022/08/31 05:56:41;;;;;;;20.52;16.45;;;;;;;17.02;100.00;93166.56;5092595;28;20044;-71
2022/08/31 05:59:08;;;;;;;21.38;16.95;;;;;;;17.09;100.00;93168.97;5092504;28;20127;-71
2022/08/31 06:01:37;;;;;;;32.25;24.38;;;;;;;17.17;100.00;93175.50;5092772;28;20063;-71
2022/08/31 06:04:05;;;;;;;42.20;30.02;;;;;;;17.31;100.00;93173.25;5092519;28;20430;-71
2022/08/31 06:06:32;;;;;;;38.35;30.52;;;;;;;17.43;100.00;93171.22;5092511;28;20109;-71
2022/08/31 06:08:59;;;;;;;27.83;21.90;;;;;;;17.56;100.00;93164.00;5092477;28;20048;-71
2022/08/31 06:11:28;;;;;;;23.38;19.73;;;;;;;17.74;100.00;93160.16;5092598;28;20048;-71
2022/08/31 06:13:59;;;;;;;19.65;15.90;;;;;;;17.96;100.00;93165.16;5092510;28;20109;-71
2022/08/31 06:16:28;;;;;;;21.50;15.88;;;;;;;18.07;100.00;93155.59;5092449;28;20060;-70
2022/08/31 06:18:56;;;;;;;20.90;15.63;;;;;;;18.32;100.00;93168.91;5092736;28;20039;-70
2022/08/31 06:21:44;;;;;;;20.10;15.88;;;;;;;18.54;100.00;93173.84;5092403;28;20058;-71
2022/08/31 06:24:11;;;;;;;20.40;15.15;;;;;;;18.74;100.00;93177.50;5092064;28;20048;-71
2022/08/31 06:26:39;;;;;;;24.30;16.95;;;;;;;18.90;100.00;93173.84;5092059;28;20048;-71
2022/08/31 06:29:08;;;;;;;25.05;18.45;;;;;;;18.88;100.00;93159.53;5092032;28;20040;-71
2022/08/31 06:31:37;;;;;;;29.75;20.25;;;;;;;18.79;100.00;93174.88;5091990;28;20127;-71
2022/08/31 06:34:06;;;;;;;30.50;19.95;;;;;;;18.82;100.00;93169.13;5092110;28;20412;-71
2022/08/31 06:36:34;;;;;;;26.92;18.85;;;;;;;18.77;100.00;93169.94;5092185;28;20138;-71
2022/08/31 06:39:02;;;;;;;24.98;17.80;;;;;;;18.59;100.00;93166.03;5092136;28;20411;-71
2022/08/31 06:41:31;;;;;;;30.83;18.73;;;;;;;18.82;100.00;93166.53;5092026;28;20135;-70
2022/08/31 06:43:59;;;;;;;28.95;18.42;;;;;;;19.04;100.00;93170.72;5091530;28;20056;-71
2022/08/31 06:46:28;;;;;;;24.17;18.13;;;;;;;19.28;100.00;93170.13;5091749;28;20461;-71
2022/08/31 06:48:55;;;;;;;22.30;16.40;;;;;;;19.53;100.00;93182.28;5091988;28;20331;-71
2022/08/31 06:51:23;;;;;;;22.70;16.35;;;;;;;19.72;100.00;93179.09;5092105;28;20109;-71
2022/08/31 06:53:51;;;;;;;22.50;15.88;;;;;;;19.93;100.00;93182.38;5091486;28;20955;-71
2022/08/31 06:56:20;;;;;;;22.38;16.27;;;;;;;20.02;100.00;93174.81;5091728;28;20055;-71
2022/08/31 06:58:47;;;;;;;20.20;14.85;;;;;;;20.49;100.00;93182.34;5091669;28;20135;-71
2022/08/31 07:01:16;;;;;;;21.80;14.63;;;;;;;20.76;100.00;93188.91;5091387;28;20616;-71
2022/08/31 07:03:47;;;;;;;18.08;12.95;;;;;;;21.04;100.00;93203.06;5091391;28;20451;-71
2022/08/31 07:06:16;;;;;;;17.88;12.68;;;;;;;21.24;100.00;93190.88;5091550;28;20056;-71
2022/08/31 07:08:44;;;;;;;16.23;10.48;;;;;;;21.46;100.00;93195.63;5091236;28;20063;-71
2022/08/31 07:11:12;;;;;;;20.20;14.45;;;;;;;21.76;100.00;93201.56;5091378;28;20048;-71
2022/08/31 07:13:40;;;;;;;18.77;13.70;;;;;;;22.00;100.00;93203.38;5091601;28;20044;-71
2022/08/31 07:16:08;;;;;;;21.52;13.60;;;;;;;22.31;100.00;93199.56;5091211;28;20051;-71
2022/08/31 07:18:35;;;;;;;22.35;13.45;;;;;;;22.51;100.00;93208.19;5091369;28;20055;-71
2022/08/31 07:21:13;;;;;;;21.25;12.95;;;;;;;22.73;100.00;93207.63;5091101;28;20039;-71
2022/08/31 07:23:40;;;;;;;15.55;11.02;;;;;;;22.90;100.00;93207.09;5091372;28;20040;-71
2022/08/31 07:26:09;;;;;;;15.18;12.18;;;;;;;23.18;100.00;93206.38;5091342;28;20099;-71
2022/08/31 07:28:37;;;;;;;16.88;11.40;;;;;;;23.42;100.00;93214.09;5091000;28;20044;-71
2022/08/31 07:31:05;;;;;;;15.27;11.73;;;;;;;23.67;100.00;93219.94;5090773;28;20131;-71
2022/08/31 07:33:36;;;;;;;17.10;11.85;;;;;;;23.77;100.00;93213.72;5090297;28;20537;-71
2022/08/31 07:36:06;;;;;;;16.08;10.68;;;;;;;23.97;100.00;93220.41;5090947;28;20050;-71
2022/08/31 07:44:00;;;;;;;18.27;10.45;;;;;;;24.45;99.59;93215.78;5037503;28;20125;-71
2022/08/31 07:46:28;;;;;;;15.85;11.00;;;;;;;24.42;96.00;93219.78;5090029;28;20591;-71
2022/08/31 07:48:55;;;;;;;15.55;10.57;;;;;;;24.37;99.26;93211.22;5090052;28;20495;-71
2022/08/31 07:51:22;;;;;;;17.33;10.85;;;;;;;24.01;97.51;93216.13;5088534;28;20097;-71
2022/08/31 07:53:51;;;;;;;17.23;11.80;;;;;;;24.18;99.24;93199.03;5090127;28;20139;-71
2022/08/31 07:56:19;;;;;;;19.58;10.80;;;;;;;24.34;96.67;93201.31;5088977;28;20048;-71
2022/08/31 07:58:46;;;;;;;13.85;10.90;;;;;;;24.17;99.38;93207.97;5081727;28;20063;-71
2022/08/31 08:01:14;;;;;;;20.23;11.38;;;;;;;24.35;100.00;93206.25;5090407;28;20075;-71
2022/08/31 08:03:42;;;;;;;15.52;11.43;;;;;;;24.46;100.00;93201.56;5090302;28;20054;-71
2022/08/31 08:06:13;;;;;;;17.90;10.45;;;;;;;24.66;99.31;93210.03;5090040;28;20052;-72
2022/08/31 08:08:42;;;;;;;13.02;10.30;;;;;;;24.66;93.63;93208.19;5088058;28;20117;-71
2022/08/31 08:11:15;;;;;;;14.88;10.15;;;;;;;24.58;94.12;93214.19;5085442;28;20048;-71
2022/08/31 08:13:41;;;;;;;15.95;11.68;;;;;;;24.44;94.23;93210.81;5090340;28;20040;-71
2022/08/31 08:16:08;;;;;;;18.52;10.65;;;;;;;24.21;96.88;93202.91;5090070;28;20040;-71
2022/08/31 08:18:35;;;;;;;17.33;10.63;;;;;;;24.29;97.36;93210.06;5090038;28;20094;-71
2022/08/31 08:21:02;;;;;;;18.35;11.30;;;;;;;24.40;100.00;93213.25;5090258;28;20131;-71
2022/08/31 08:23:28;;;;;;;14.93;10.68;;;;;;;24.20;97.60;93214.47;5089904;28;20094;-71
2022/08/31 08:25:59;;;;;;;21.48;11.85;;;;;;;23.80;99.95;93212.38;5089736;28;20044;-71
2022/08/31 08:28:29;;;;;;;17.38;10.20;;;;;;;23.40;100.00;93212.84;5089038;28;20620;-71
2022/08/31 08:30:59;;;;;;;15.07;11.48;;;;;;;23.20;100.00;93199.78;5089539;28;20055;-71
2022/08/31 08:33:28;;;;;;;18.02;11.05;;;;;;;23.22;100.00;93204.72;5088642;28;20044;-71
2022/08/31 08:35:56;;;;;;;14.38;10.02;;;;;;;23.34;100.00;93205.06;5088889;28;20048;-71
2022/08/31 08:38:24;;;;;;;13.35;10.73;;;;;;;23.44;100.00;93198.88;5085781;28;20488;-71
2022/08/31 08:40:52;;;;;;;15.30;10.40;;;;;;;23.72;100.00;93200.72;5089593;28;20097;-71
2022/08/31 08:43:23;;;;;;;13.75;10.52;;;;;;;23.58;100.00;93209.38;5089676;28;20666;-71
2022/08/31 08:45:53;;;;;;;14.88;10.25;;;;;;;23.57;100.00;93204.41;5076411;28;20051;-71
2022/08/31 08:48:25;;;;;;;17.27;12.07;;;;;;;23.58;100.00;93192.84;5088958;28;20596;-71
2022/08/31 08:50:52;;;;;;;13.85;10.20;;;;;;;23.41;100.00;93193.44;5088394;28;20537;-71
2022/08/31 08:53:22;;;;;;;12.93;10.38;;;;;;;23.46;100.00;93177.59;5089376;28;20050;-71
2022/08/31 08:55:50;;;;;;;16.20;10.88;;;;;;;23.46;100.00;93178.38;5089311;28;20040;-71
2022/08/31 08:58:18;;;;;;;13.82;11.40;;;;;;;23.53;100.00;93175.38;5089343;28;20173;-72
2022/08/31 09:00:49;;;;;;;14.45;10.68;;;;;;;23.52;100.00;93167.81;5089490;28;20040;-72
2022/08/31 09:03:24;;;;;;;12.88;9.98;;;;;;;23.41;100.00;93169.84;5089357;28;20101;-71
2022/08/31 09:06:00;;;;;;;14.98;10.88;;;;;;;23.62;100.00;93178.84;5089252;28;20040;-71
2022/08/31 09:09:07;;;;;;;13.98;9.95;;;;;;;23.68;100.00;93174.28;5088013;28;20513;-71
2022/08/31 09:11:48;;;;;;;14.70;10.60;;;;;;;23.67;100.00;93172.75;5088583;28;20066;-72
2022/08/31 09:14:25;;;;;;;13.75;10.15;;;;;;;23.86;100.00;93170.00;5089338;28;20048;-72
2022/08/31 09:17:01;;;;;;;13.18;9.20;;;;;;;23.89;100.00;93173.88;5089034;28;20051;-72
2022/08/31 09:19:56;;;;;;;;;;;;;;;24.01;100.00;93174.16;5089360;28;20036;-72
2022/08/31 09:22:16;;;;;;;12.95;9.63;;;;;;;23.93;100.00;93172.22;5088808;28;19920;-72
2022/08/31 09:24:43;;;;;;;11.20;8.73;;;;;;;24.07;100.00;93174.03;5089268;28;20378;-72
2022/08/31 09:27:17;;;;;;;14.80;9.40;;;;;;;24.17;100.00;93166.00;5088915;28;20048;-72
2022/08/31 09:29:45;;;;;;;11.60;7.90;;;;;;;24.22;100.00;93172.97;5089470;28;20044;-72
2022/08/31 09:32:21;;;;;;;10.45;8.60;;;;;;;24.31;100.00;93167.78;5089113;28;20127;-72
2022/08/31 09:34:57;;;;;;;12.93;9.10;;;;;;;24.37;100.00;93161.34;5088982;28;20056;-72
2022/08/31 09:37:32;;;;;;;11.40;8.60;;;;;;;24.44;100.00;93164.31;5088983;28;20047;-72
2022/08/31 09:40:14;;;;;;;11.20;9.25;;;;;;;24.47;100.00;93157.69;5089177;28;20411;-72
2022/08/31 09:42:42;;;;;;;10.00;8.55;;;;;;;24.49;100.00;93150.31;5088736;28;20511;-72
2022/08/31 09:45:18;;;;;;;11.90;9.02;;;;;;;24.57;100.00;93154.06;5088649;28;20500;-72
2022/08/31 09:47:54;;;;;;;13.48;9.10;;;;;;;24.49;100.00;93145.06;5088929;28;20450;-72
2022/08/31 09:50:36;;;;;;;11.65;9.23;;;;;;;24.53;98.76;93149.41;5089138;28;20074;-72
2022/08/31 09:56:12;;;;;;;17.77;10.85;;;;;;;24.54;97.54;93145.72;5088800;28;20051;-72
2022/08/31 09:58:41;;;;;;;15.50;10.75;;;;;;;24.47;98.16;93142.72;5088769;28;20043;-72
2022/08/31 10:01:14;;;;;;;14.95;11.10;;;;;;;24.58;98.74;93130.16;5088457;28;20577;-72
2022/08/31 10:03:46;;;;;;;16.50;11.00;;;;;;;24.63;97.42;93137.88;5088593;28;20094;-72
2022/08/31 10:06:44;;;;;;;12.63;10.32;;;;;;;24.49;90.86;93143.19;5088853;28;20044;-72
2022/08/31 10:09:20;;;;;;;14.48;11.52;;;;;;;24.56;94.57;93132.28;5088720;28;20415;-72
2022/08/31 10:11:51;;;;;;;23.00;13.45;;;;;;;24.55;94.81;93123.66;5088465;28;20492;-72
2022/08/31 10:14:24;;;;;;;15.77;11.68;;;;;;;24.59;92.95;93115.94;5088911;28;20104;-72
2022/08/31 10:16:59;;;;;;;17.42;11.32;;;;;;;24.76;92.32;93117.13;5088497;28;20036;-72
2022/08/31 10:19:33;;;;;;;12.88;9.93;;;;;;;24.85;88.88;93114.56;5089500;28;20048;-72
2022/08/31 10:22:04;;;;;;;13.45;9.48;;;;;;;24.89;88.04;93126.00;5092542;28;20040;-73
2022/08/31 10:24:40;;;;;;;14.27;8.60;;;;;;;25.01;87.84;93120.19;5092401;28;20048;-72
2022/08/31 10:27:15;;;;;;;10.05;8.63;;;;;;;25.17;89.65;93120.53;5092236;28;20476;-73
2022/08/31 10:29:56;;;;;;;12.07;8.93;;;;;;;25.37;90.27;93105.31;5092305;28;20048;-73
2022/08/31 10:32:35;;;;;;;10.93;8.63;;;;;;;25.49;87.56;93093.13;5092259;28;20093;-73
2022/08/31 10:35:09;;;;;;;12.32;8.20;;;;;;;25.71;86.66;93101.22;5091844;28;20052;-72
2022/08/31 10:37:53;;;;;;;12.73;8.43;;;;;;;25.81;84.24;93095.69;5092186;28;20105;-72
2022/08/31 10:40:31;;;;;;;13.68;8.13;;;;;;;25.75;81.79;93073.25;5091949;28;20052;-73
2022/08/31 10:43:09;;;;;;;11.35;8.43;;;;;;;26.11;82.87;93095.06;5092052;28;20119;-73
2022/08/31 10:45:42;;;;;;;12.23;8.30;;;;;;;26.19;78.98;93096.16;5092098;28;20127;-73
2022/08/31 10:48:09;;;;;;;10.63;7.55;;;;;;;26.33;79.11;93090.75;5091477;28;20156;-73
2022/08/31 10:50:45;;;;;;;9.35;6.93;;;;;;;26.53;75.83;93100.59;5091938;28;20044;-73
2022/08/31 10:53:25;;;;;;;13.90;7.35;;;;;;;26.77;78.94;93095.91;5091946;28;20401;-73
2022/08/31 10:56:01;;;;;;;11.02;7.82;;;;;;;27.07;75.64;93088.88;5091753;28;20044;-73
2022/08/31 10:58:36;;;;;;;11.65;7.72;;;;;;;27.41;79.10;93083.75;5091769;28;20097;-73
2022/08/31 11:01:07;;;;;;;;;;;;;;;27.79;76.89;93082.13;5092133;28;20106;-73
2022/08/31 11:03:56;;;;;;;15.60;7.07;;;;;;;28.12;77.95;93073.50;5091489;28;20371;-73
2022/08/31 11:06:33;;;;;;;9.60;6.97;;;;;;;28.36;75.17;93064.13;5091344;28;20044;-72
2022/08/31 11:09:06;;;;;;;11.88;7.60;;;;;;;28.74;71.89;93075.56;5091560;28;20056;-72
2022/08/31 11:11:40;;;;;;;10.82;6.90;;;;;;;28.24;68.32;93080.72;5091245;28;20044;-73
2022/08/31 11:14:24;;;;;;;9.80;6.95;;;;;;;27.37;68.84;93066.22;5091473;28;20044;-73
2022/08/31 11:17:19;;;;;;;11.05;6.95;;;;;;;26.86;74.65;93074.81;5090809;28;20044;-73
2022/08/31 11:20:18;;;;;;;12.60;7.70;;;;;;;26.04;72.28;93087.63;5091284;28;20044;-74
2022/08/31 11:23:05;;;;;;;9.95;6.53;;;;;;;24.80;73.77;93086.53;5091335;28;20052;-73
2022/08/31 11:26:10;;;;;;;8.98;7.10;;;;;;;24.46;76.79;93070.31;5091256;28;20442;-73
2022/08/31 11:28:40;;;;;;;12.63;6.43;;;;;;;24.91;78.58;93071.31;5088573;28;20039;-72
2022/08/31 11:31:19;;;;;;;9.00;6.78;;;;;;;24.77;76.32;93066.88;5090045;28;20097;-73
2022/08/31 11:33:49;;;;;;;8.52;6.47;;;;;;;24.49;79.50;93059.19;5090627;28;20048;-73
2022/08/31 11:36:42;;;;;;;11.43;6.90;;;;;;;24.04;79.62;93073.09;5090793;28;20051;-73